createdAt,value
2018-12-23T00:00:16.339Z,101055.88
2018-12-23T00:02:51.573Z,101055.23
2018-12-23T00:05:20.048Z,101060.17
2018-12-23T00:07:48.510Z,101059.50
2018-12-23T00:10:17.013Z,101061.81
2018-12-23T00:12:45.513Z,101060.82
2018-12-23T00:15:14.060Z,101056.37
2018-12-23T00:17:42.535Z,101061.49
2018-12-23T00:20:11.046Z,101065.44
2018-12-23T00:22:39.540Z,101069.56
2018-12-23T00:25:08.385Z,101067.77
2018-12-23T00:27:36.847Z,101072.86
2018-12-23T00:30:07.095Z,101074.02
2018-12-23T00:32:35.619Z,101076.65
2018-12-23T00:35:04.293Z,101079.09
2018-12-23T00:37:32.786Z,101079.12
2018-12-23T00:40:01.581Z,101073.19
2018-12-23T00:42:30.067Z,101074.02
2018-12-23T00:44:58.667Z,101079.57
2018-12-23T00:47:27.173Z,101082.04
2018-12-23T00:49:55.640Z,101087.75
2018-12-23T00:52:24.189Z,101090.59
2018-12-23T00:54:52.635Z,101084.05
2018-12-23T00:57:21.214Z,101085.88
2018-12-23T00:59:49.733Z,101085.88
2018-12-23T01:02:18.240Z,101081.91
2018-12-23T01:04:46.736Z,101081.58
2018-12-23T01:07:16.183Z,101085.52
2018-12-23T01:09:44.801Z,101091.97
2018-12-23T01:12:13.309Z,101091.77
2018-12-23T01:14:41.793Z,101081.06
2018-12-23T01:17:10.365Z,101085.88
2018-12-23T01:19:38.889Z,101096.55
2018-12-23T01:22:07.401Z,101100.49
2018-12-23T01:24:35.906Z,101102.95
2018-12-23T01:27:04.389Z,101111.69
2018-12-23T01:29:32.895Z,101112.52
2018-12-23T01:32:01.360Z,101111.84
2018-12-23T01:34:36.992Z,101117.08
2018-12-23T01:37:00.372Z,101109.51
2018-12-23T01:39:29.108Z,101114.45
2018-12-23T01:41:58.467Z,101116.05
2018-12-23T01:44:27.215Z,101115.73
2018-12-23T01:46:55.737Z,101115.09
2018-12-23T01:49:24.211Z,101116.73
2018-12-23T01:51:52.730Z,101120.96
2018-12-23T01:54:21.411Z,101122.88
2018-12-23T01:56:49.861Z,101120.28
2018-12-23T01:59:18.345Z,101122.40
2018-12-23T02:01:46.818Z,101127.84
2018-12-23T02:04:15.338Z,101123.91
2018-12-23T02:06:43.848Z,101134.70
2018-12-23T02:09:12.937Z,101142.75
2018-12-23T02:11:41.480Z,101138.45
2018-12-23T02:14:10.639Z,101139.77
2018-12-23T02:16:39.159Z,101132.56
2018-12-23T02:19:07.664Z,101134.34
2018-12-23T02:21:36.149Z,101129.26
2018-12-23T02:24:05.477Z,101136.62
2018-12-23T02:26:33.947Z,101137.63
2018-12-23T02:29:03.374Z,101133.03
2018-12-23T02:31:31.860Z,101131.72
2018-12-23T02:34:00.339Z,101132.95
2018-12-23T02:36:28.965Z,101139.09
2018-12-23T02:38:57.747Z,101143.03
2018-12-23T02:41:31.576Z,101136.89
2018-12-23T02:43:56.964Z,101138.25
2018-12-23T02:46:25.440Z,101140.78
2018-12-23T02:48:54.150Z,101137.58
2018-12-23T02:51:22.789Z,101135.27
2018-12-23T02:53:51.257Z,101136.74
2018-12-23T02:56:19.784Z,101131.38
2018-12-23T02:58:48.326Z,101132.58
2018-12-23T03:01:16.895Z,101135.25
2018-12-23T03:03:45.368Z,101141.66
2018-12-23T03:06:13.987Z,101144.29
2018-12-23T03:08:42.509Z,101147.54
2018-12-23T03:11:11.025Z,101135.89
2018-12-23T03:13:39.565Z,101143.23
2018-12-23T03:16:08.028Z,101148.27
2018-12-23T03:18:36.508Z,101148.63
2018-12-23T03:21:05.081Z,101151.02
2018-12-23T03:23:33.580Z,101154.08
2018-12-23T03:26:02.143Z,101156.30
2018-12-23T03:28:30.679Z,101138.67
2018-12-23T03:30:59.266Z,101140.31
2018-12-23T03:33:27.868Z,101138.67
2018-12-23T03:35:56.336Z,101124.30
2018-12-23T03:38:24.815Z,101123.87
2018-12-23T03:40:53.311Z,101119.05
2018-12-23T03:43:21.882Z,101128.60
2018-12-23T03:45:50.522Z,101119.73
2018-12-23T03:48:19.036Z,101127.39
2018-12-23T03:50:47.654Z,101133.47
2018-12-23T03:53:16.158Z,101125.59
2018-12-23T03:55:44.772Z,101127.02
2018-12-23T03:58:13.313Z,101127.75
2018-12-23T04:00:41.775Z,101131.62
2018-12-23T04:03:10.264Z,101121.30
2018-12-23T04:05:38.871Z,101126.67
2018-12-23T04:08:07.377Z,101118.70
2018-12-23T04:10:35.884Z,101114.97
2018-12-23T04:13:05.165Z,101114.75
2018-12-23T04:15:34.395Z,101109.25
2018-12-23T04:18:02.915Z,101108.47
2018-12-23T04:20:31.911Z,101100.72
2018-12-23T04:23:00.720Z,101099.76
2018-12-23T04:25:29.176Z,101089.20
2018-12-23T04:27:57.668Z,101093.61
2018-12-23T04:30:26.873Z,101094.03
2018-12-23T04:32:55.366Z,101096.27
2018-12-23T04:35:24.084Z,101096.01
2018-12-23T04:37:52.576Z,101087.73
2018-12-23T04:40:21.044Z,101087.02
2018-12-23T04:42:49.570Z,101087.17
2018-12-23T04:45:18.116Z,101082.48
2018-12-23T04:47:46.637Z,101077.81
2018-12-23T04:50:15.089Z,101078.98
2018-12-23T04:52:43.607Z,101081.73
2018-12-23T04:55:12.161Z,101086.42
2018-12-23T04:57:40.669Z,101093.45
2018-12-23T05:00:09.366Z,101082.40
2018-12-23T05:02:37.885Z,101078.16
2018-12-23T05:05:06.374Z,101081.45
2018-12-23T05:07:36.958Z,101075.88
2018-12-23T05:10:05.666Z,101074.84
2018-12-23T05:12:34.187Z,101073.59
2018-12-23T05:15:02.742Z,101074.00
2018-12-23T05:17:31.281Z,101071.74
2018-12-23T05:19:59.796Z,101075.47
2018-12-23T05:22:28.379Z,101071.48
2018-12-23T05:24:56.990Z,101071.33
2018-12-23T05:27:25.500Z,101078.73
2018-12-23T05:29:53.947Z,101079.19
2018-12-23T05:32:22.470Z,101080.45
2018-12-23T05:34:50.964Z,101078.66
2018-12-23T05:37:20.184Z,101081.03
2018-12-23T05:39:48.672Z,101077.47
2018-12-23T05:42:17.199Z,101079.03
2018-12-23T05:44:45.787Z,101078.05
2018-12-23T05:47:14.300Z,101080.19
2018-12-23T05:49:42.768Z,101084.82
2018-12-23T05:52:11.403Z,101082.34
2018-12-23T05:54:40.040Z,101078.36
2018-12-23T05:57:09.208Z,101079.35
2018-12-23T05:59:37.779Z,101087.23
2018-12-23T06:02:06.349Z,101083.82
2018-12-23T06:04:35.003Z,101078.41
2018-12-23T06:07:03.515Z,101082.55
2018-12-23T06:09:32.136Z,101080.03
2018-12-23T06:12:00.624Z,101078.41
2018-12-23T06:14:29.097Z,101081.03
2018-12-23T06:16:57.651Z,101086.08
2018-12-23T06:19:26.650Z,101088.48
2018-12-23T06:22:28.647Z,101088.05
2018-12-23T06:24:58.270Z,101077.14
2018-12-23T06:27:27.889Z,101081.44
2018-12-23T06:29:57.855Z,101089.31
2018-12-23T06:32:27.727Z,101092.36
2018-12-23T06:34:57.313Z,101080.13
2018-12-23T06:37:27.298Z,101082.13
2018-12-23T06:39:57.329Z,101082.44
2018-12-23T06:42:27.634Z,101078.66
2018-12-23T06:44:57.311Z,101086.70
2018-12-23T06:47:26.955Z,101079.50
2018-12-23T06:49:56.879Z,101084.55
2018-12-23T06:52:26.865Z,101095.52
2018-12-23T06:54:56.485Z,101089.00
2018-12-23T06:57:26.159Z,101089.36
2018-12-23T06:59:55.808Z,101092.03
2018-12-23T07:02:25.996Z,101088.37
2018-12-23T07:04:55.955Z,101093.73
2018-12-23T07:07:25.543Z,101095.09
2018-12-23T07:09:55.171Z,101098.20
2018-12-23T07:12:25.092Z,101100.44
2018-12-23T07:14:54.772Z,101105.20
2018-12-23T07:17:24.739Z,101107.00
2018-12-23T07:19:54.832Z,101113.48
2018-12-23T07:22:24.665Z,101114.20
2018-12-23T07:24:54.263Z,101107.23
2018-12-23T07:27:24.606Z,101103.94
2018-12-23T07:29:54.599Z,101102.98
2018-12-23T07:32:25.880Z,101105.97
2018-12-23T07:34:55.750Z,101105.17
2018-12-23T07:37:27.655Z,101105.93
2018-12-23T07:39:56.725Z,101106.61
2018-12-23T07:42:26.672Z,101109.55
2018-12-23T07:44:56.303Z,101106.41
2018-12-23T07:47:25.945Z,101114.33
2018-12-23T07:49:55.579Z,101111.55
2018-12-23T07:52:25.160Z,101101.08
2018-12-23T07:54:55.097Z,101108.12
2018-12-23T07:57:24.695Z,101111.38
2018-12-23T07:59:54.332Z,101106.65
2018-12-23T08:02:23.949Z,101105.30
2018-12-23T08:04:53.558Z,101099.72
2018-12-23T08:07:23.472Z,101097.58
2018-12-23T08:09:53.461Z,101098.41
2018-12-23T08:12:23.056Z,101100.04
2018-12-23T08:14:53.294Z,101098.72
2018-12-23T08:17:23.267Z,101096.61
2018-12-23T08:19:53.172Z,101092.84
2018-12-23T08:22:23.211Z,101092.04
2018-12-23T08:24:53.202Z,101100.12
2018-12-23T08:27:23.308Z,101104.41
2018-12-23T08:29:52.902Z,101092.39
2018-12-23T08:32:22.554Z,101096.34
2018-12-23T08:34:52.126Z,101093.70
2018-12-23T08:37:22.123Z,101088.97
2018-12-23T08:39:51.764Z,101091.50
2018-12-23T08:42:21.759Z,101092.20
2018-12-23T08:44:51.330Z,101092.05
2018-12-23T08:47:20.987Z,101093.68
2018-12-23T08:49:50.581Z,101101.37
2018-12-23T08:52:20.608Z,101097.63
2018-12-23T08:54:50.202Z,101095.28
2018-12-23T08:57:19.957Z,101097.11
2018-12-23T08:59:49.576Z,101100.89
2018-12-23T09:02:19.544Z,101095.19
2018-12-23T09:04:49.584Z,101094.54
2018-12-23T09:07:19.592Z,101098.27
2018-12-23T09:09:50.567Z,101088.09
2018-12-23T09:12:20.545Z,101090.34
2018-12-23T09:14:51.853Z,101094.00
2018-12-23T09:17:21.820Z,101083.83
2018-12-23T09:19:54.717Z,101089.06
2018-12-23T09:22:24.384Z,101089.62
2018-12-23T09:24:54.719Z,101087.80
2018-12-23T09:27:24.707Z,101075.49
2018-12-23T09:29:54.625Z,101082.36
2018-12-23T09:32:24.265Z,101083.54
2018-12-23T09:34:54.175Z,101074.34
2018-12-23T09:37:24.124Z,101083.70
2018-12-23T09:39:54.504Z,101081.91
2018-12-23T09:42:24.406Z,101083.89
2018-12-23T09:44:54.439Z,101080.78
2018-12-23T09:47:24.167Z,101078.66
2018-12-23T09:49:54.084Z,101080.64
2018-12-23T09:52:23.682Z,101072.77
2018-12-23T09:54:53.397Z,101080.98
2018-12-23T09:57:23.935Z,101075.38
2018-12-23T09:59:54.368Z,101071.63
2018-12-23T10:02:24.821Z,101066.35
2018-12-23T10:04:54.718Z,101070.81
2018-12-23T10:07:24.438Z,101065.87
2018-12-23T10:09:54.057Z,101065.22
2018-12-23T10:12:24.029Z,101064.91
2018-12-23T10:14:53.954Z,101057.65
2018-12-23T10:17:24.213Z,101058.64
2018-12-23T10:19:54.145Z,101066.53
2018-12-23T10:22:23.811Z,101062.09
2018-12-23T10:24:53.942Z,101057.14
2018-12-23T10:27:23.826Z,101053.20
2018-12-23T10:29:54.146Z,101047.77
2018-12-23T10:32:23.968Z,101045.81
2018-12-23T10:34:54.286Z,101050.11
2018-12-23T10:37:24.257Z,101053.87
2018-12-23T10:39:54.796Z,101035.48
2018-12-23T10:42:24.409Z,101036.28
2018-12-23T10:44:54.447Z,101036.63
2018-12-23T10:47:25.498Z,101036.63
2018-12-23T10:49:55.260Z,101032.02
2018-12-23T10:52:25.000Z,101040.39
2018-12-23T10:54:55.805Z,101037.44
2018-12-23T10:57:25.429Z,101021.80
2018-12-23T10:59:55.094Z,101012.95
2018-12-23T11:02:25.615Z,101014.73
2018-12-23T11:04:55.308Z,101001.29
2018-12-23T11:07:24.969Z,100999.16
2018-12-23T11:10:01.928Z,100991.42
2018-12-23T11:12:26.584Z,100982.06
2018-12-23T11:14:56.218Z,100972.52
2018-12-23T11:17:27.363Z,100966.92
2018-12-23T11:19:57.524Z,100968.23
2018-12-23T11:22:27.244Z,100973.34
2018-12-23T11:24:56.985Z,100973.98
2018-12-23T11:27:27.057Z,100968.59
2018-12-23T11:29:57.108Z,100962.00
2018-12-23T11:32:27.191Z,100964.12
2018-12-23T11:34:56.761Z,100961.00
2018-12-23T11:37:26.984Z,100957.39
2018-12-23T11:39:56.667Z,100952.78
2018-12-23T11:42:26.553Z,100946.72
2018-12-23T11:44:56.510Z,100950.32
2018-12-23T11:47:26.564Z,100931.75
2018-12-23T11:49:56.177Z,100925.00
2018-12-23T11:52:25.747Z,100927.47
2018-12-23T11:54:55.663Z,100920.55
2018-12-23T11:57:25.567Z,100920.73
2018-12-23T11:59:55.611Z,100911.18
2018-12-23T12:02:25.221Z,100897.19
2018-12-23T12:04:55.183Z,100895.56
2018-12-23T12:07:25.110Z,100900.80
2018-12-23T12:09:54.811Z,100896.02
2018-12-23T12:12:24.850Z,100904.45
2018-12-23T12:14:55.163Z,100909.52
2018-12-23T12:17:25.351Z,100896.53
2018-12-23T12:19:55.034Z,100888.78
2018-12-23T12:22:25.007Z,100883.65
2018-12-23T12:24:54.914Z,100873.38
2018-12-23T12:27:24.619Z,100876.05
2018-12-23T12:29:54.624Z,100878.69
2018-12-23T12:32:24.635Z,100877.02
2018-12-23T12:34:54.259Z,100879.48
2018-12-23T12:37:23.879Z,100884.61
2018-12-23T12:39:53.654Z,100878.20
2018-12-23T12:42:24.226Z,100875.44
2018-12-23T12:44:54.256Z,100875.30
2018-12-23T12:47:24.004Z,100876.44
2018-12-23T12:49:53.750Z,100870.55
2018-12-23T12:52:23.521Z,100864.25
2018-12-23T12:54:53.619Z,100865.56
2018-12-23T12:57:24.347Z,100857.00
2018-12-23T12:59:54.880Z,100849.77
2018-12-23T13:02:24.569Z,100842.52
2018-12-23T13:04:54.663Z,100837.92
2018-12-23T13:07:24.620Z,100830.84
2018-12-23T13:09:54.231Z,100833.44
2018-12-23T13:12:24.325Z,100824.88
2018-12-23T13:14:54.363Z,100832.26
2018-12-23T13:17:24.411Z,100844.64
2018-12-23T13:19:54.024Z,100832.16
2018-12-23T13:22:25.651Z,100834.63
2018-12-23T13:24:56.815Z,100829.53
2018-12-23T13:27:26.407Z,100827.11
2018-12-23T13:29:56.040Z,100823.83
2018-12-23T13:32:25.713Z,100821.84
2018-12-23T13:34:55.324Z,100811.62
2018-12-23T13:37:24.992Z,100811.31
2018-12-23T13:39:56.651Z,100806.02
2018-12-23T13:42:52.166Z,100804.04
2018-12-23T13:46:01.068Z,100805.05
2018-12-23T13:49:01.129Z,100802.28
2018-12-23T13:51:58.729Z,100798.34
2018-12-23T13:55:36.701Z,100796.70
2018-12-23T13:58:47.441Z,100786.36
2018-12-23T14:02:09.693Z,100779.78
2018-12-23T14:05:04.139Z,100775.17
2018-12-23T14:08:16.545Z,100765.80
2018-12-23T14:11:24.160Z,100760.67
2018-12-23T14:13:53.780Z,100768.91
2018-12-23T14:16:24.716Z,100755.93
2018-12-23T14:18:54.631Z,100756.76
2018-12-23T14:21:24.260Z,100750.36
2018-12-23T14:23:54.139Z,100753.82
2018-12-23T14:26:24.330Z,100756.48
2018-12-23T14:28:54.044Z,100758.97
2018-12-23T14:31:24.683Z,100763.58
2018-12-23T14:33:54.277Z,100758.14
2018-12-23T14:36:23.930Z,100753.54
2018-12-23T14:38:55.611Z,100751.70
2018-12-23T14:41:25.403Z,100741.05
2018-12-23T14:43:55.027Z,100743.64
2018-12-23T14:46:25.952Z,100738.03
2018-12-23T14:48:55.930Z,100728.16
2018-12-23T14:51:25.553Z,100715.36
2018-12-23T14:53:55.677Z,100714.05
2018-12-23T14:56:25.297Z,100716.50
2018-12-23T14:58:56.317Z,100706.45
2018-12-23T15:01:25.914Z,100709.44
2018-12-23T15:03:56.201Z,100703.70
2018-12-23T15:06:26.523Z,100698.27
2018-12-23T15:08:56.374Z,100700.58
2018-12-23T15:11:26.199Z,100694.97
2018-12-23T15:13:55.816Z,100692.03
2018-12-23T15:16:25.558Z,100692.03
2018-12-23T15:18:55.886Z,100683.80
2018-12-23T15:21:25.461Z,100677.39
2018-12-23T15:23:55.038Z,100665.73
2018-12-23T15:26:24.636Z,100658.50
2018-12-23T15:28:54.585Z,100654.90
2018-12-23T15:31:24.272Z,100654.24
2018-12-23T15:33:53.891Z,100657.87
2018-12-23T15:36:24.332Z,100670.03
2018-12-23T15:38:54.294Z,100673.48
2018-12-23T15:41:24.248Z,100666.91
2018-12-23T15:43:54.421Z,100655.52
2018-12-23T15:46:24.041Z,100655.98
2018-12-23T15:48:53.641Z,100655.16
2018-12-23T15:51:23.231Z,100656.82
2018-12-23T15:53:53.091Z,100638.70
2018-12-23T15:56:22.724Z,100636.08
2018-12-23T15:58:52.320Z,100634.77
2018-12-23T16:01:23.792Z,100641.83
2018-12-23T16:03:53.372Z,100647.71
2018-12-23T16:06:23.681Z,100649.52
2018-12-23T16:08:53.731Z,100651.92
2018-12-23T16:11:23.614Z,100641.09
2018-12-23T16:13:54.861Z,100628.72
2018-12-23T16:16:24.436Z,100623.40
2018-12-23T16:18:55.541Z,100624.84
2018-12-23T16:21:26.445Z,100626.80
2018-12-23T16:23:56.043Z,100632.54
2018-12-23T16:26:25.677Z,100638.38
2018-12-23T16:28:55.848Z,100639.91
2018-12-23T16:31:25.910Z,100635.27
2018-12-23T16:33:56.338Z,100635.72
2018-12-23T16:36:26.242Z,100636.89
2018-12-23T16:38:56.126Z,100632.55
2018-12-23T16:41:27.145Z,100629.25
2018-12-23T16:43:56.777Z,100612.17
2018-12-23T16:46:26.927Z,100614.48
2018-12-23T16:48:57.326Z,100608.52
2018-12-23T16:51:27.310Z,100615.16
2018-12-23T16:53:56.902Z,100618.12
2018-12-23T16:56:26.515Z,100613.05
2018-12-23T16:58:56.135Z,100616.11
2018-12-23T17:01:25.844Z,100615.50
2018-12-23T17:03:55.469Z,100625.67
2018-12-23T17:06:25.871Z,100637.37
2018-12-23T17:08:55.598Z,100642.32
2018-12-23T17:11:25.218Z,100640.17
2018-12-23T17:13:55.004Z,100631.28
2018-12-23T17:16:24.915Z,100632.28
2018-12-23T17:18:54.558Z,100633.73
2018-12-23T17:21:24.521Z,100640.48
2018-12-23T17:23:54.869Z,100641.18
2018-12-23T17:26:24.783Z,100634.40
2018-12-23T17:28:54.800Z,100634.92
2018-12-23T17:31:24.435Z,100632.16
2018-12-23T17:33:54.049Z,100625.94
2018-12-23T17:36:24.037Z,100624.75
2018-12-23T17:38:53.971Z,100629.35
2018-12-23T17:41:23.775Z,100630.05
2018-12-23T17:43:54.120Z,100631.05
2018-12-23T17:46:23.730Z,100635.00
2018-12-23T17:48:53.651Z,100630.25
2018-12-23T17:51:23.440Z,100613.83
2018-12-23T17:53:53.577Z,100620.23
2018-12-23T17:56:23.644Z,100628.77
2018-12-23T17:58:53.616Z,100632.54
2018-12-23T18:01:23.478Z,100617.31
2018-12-23T18:03:53.478Z,100622.11
2018-12-23T18:06:25.105Z,100621.30
2018-12-23T18:08:54.510Z,100615.22
2018-12-23T18:11:24.487Z,100611.95
2018-12-23T18:13:54.336Z,100608.17
2018-12-23T18:16:23.977Z,100608.50
2018-12-23T18:18:54.468Z,100612.12
2018-12-23T18:21:24.649Z,100625.90
2018-12-23T18:23:54.685Z,100630.66
2018-12-23T18:26:24.833Z,100642.98
2018-12-23T18:28:55.105Z,100654.13
2018-12-23T18:31:25.086Z,100651.52
2018-12-23T18:33:54.825Z,100645.77
2018-12-23T18:36:25.452Z,100643.97
2018-12-23T18:38:56.583Z,100639.52
2018-12-23T18:41:26.373Z,100643.31
2018-12-23T18:43:56.372Z,100646.59
2018-12-23T18:46:25.996Z,100639.70
2018-12-23T18:48:55.902Z,100644.45
2018-12-23T18:51:25.843Z,100642.65
2018-12-23T18:53:56.117Z,100644.59
2018-12-23T18:56:41.497Z,100644.30
2018-12-23T18:59:11.977Z,100645.58
2018-12-23T19:01:45.522Z,100642.30
2018-12-23T19:04:15.610Z,100642.14
2018-12-23T19:06:45.871Z,100636.08
2018-12-23T19:09:47.549Z,100631.79
2018-12-23T19:13:00.599Z,100630.16
2018-12-23T19:15:58.890Z,100640.97
2018-12-23T19:19:04.963Z,100635.20
2018-12-23T19:22:15.560Z,100646.53
2018-12-23T19:25:05.998Z,100654.73
2018-12-23T19:28:13.629Z,100653.38
2018-12-23T19:31:28.573Z,100667.66
2018-12-23T19:34:34.497Z,100669.77
2018-12-23T19:37:41.129Z,100664.54
2018-12-23T19:40:56.919Z,100667.30
2018-12-23T19:44:25.836Z,100672.05
2018-12-23T19:47:25.514Z,100674.48
2018-12-23T19:50:14.643Z,100670.49
2018-12-23T19:53:33.318Z,100680.13
2018-12-23T19:56:40.999Z,100680.45
2018-12-23T20:00:02.754Z,100678.44
2018-12-23T20:03:11.166Z,100680.58
2018-12-23T20:06:46.115Z,100697.74
2018-12-23T20:09:39.402Z,100698.63
2018-12-23T20:12:45.261Z,100697.20
2018-12-23T20:16:06.016Z,100688.50
2018-12-23T20:19:12.060Z,100695.91
2018-12-23T20:22:25.276Z,100697.06
2018-12-23T20:25:43.859Z,100692.84
2018-12-23T20:28:52.185Z,100696.77
2018-12-23T20:31:47.024Z,100707.77
2018-12-23T20:34:57.474Z,100716.11
2018-12-23T20:38:07.925Z,100715.77
2018-12-23T20:41:14.090Z,100716.09
2018-12-23T20:44:26.874Z,100724.08
2018-12-23T20:47:25.267Z,100728.33
2018-12-23T20:50:29.023Z,100727.02
2018-12-23T20:53:45.444Z,100733.64
2018-12-23T20:57:06.476Z,100739.39
2018-12-23T21:00:22.353Z,100748.69
2018-12-23T21:03:32.117Z,100736.89
2018-12-23T21:06:41.518Z,100737.92
2018-12-23T21:09:47.113Z,100742.66
2018-12-23T21:12:56.677Z,100750.20
2018-12-23T21:16:09.085Z,100760.75
2018-12-23T21:19:18.565Z,100762.41
2018-12-23T21:22:29.287Z,100764.36
2018-12-23T21:25:27.450Z,100770.08
2018-12-23T21:28:14.147Z,100775.93
2018-12-23T21:31:20.760Z,100778.67
2018-12-23T21:34:43.435Z,100776.37
2018-12-23T21:37:36.798Z,100794.40
2018-12-23T21:41:01.371Z,100804.83
2018-12-23T21:43:58.899Z,100811.82
2018-12-23T21:47:07.797Z,100817.14
2018-12-23T21:50:45.920Z,100826.16
2018-12-23T21:54:02.703Z,100826.75
2018-12-23T21:57:24.145Z,100833.73
2018-12-23T22:00:36.290Z,100842.73
2018-12-23T22:03:50.720Z,100844.00
2018-12-23T22:07:02.494Z,100843.30
2018-12-23T22:10:04.752Z,100842.64
2018-12-23T22:13:24.334Z,100859.13
2018-12-23T22:15:55.116Z,100854.48
2018-12-23T22:18:25.699Z,100868.56
2018-12-23T22:20:55.889Z,100870.87
2018-12-23T22:23:26.689Z,100876.05
2018-12-23T22:25:57.799Z,100877.16
2018-12-23T22:28:29.163Z,100880.10
2018-12-23T22:30:59.078Z,100880.98
2018-12-23T22:33:28.756Z,100874.86
2018-12-23T22:35:58.395Z,100885.22
2018-12-23T22:38:28.405Z,100890.78
2018-12-23T22:41:12.944Z,100882.77
2018-12-23T22:43:42.760Z,100885.22
2018-12-23T22:46:12.390Z,100874.96
2018-12-23T22:48:42.615Z,100875.64
2018-12-23T22:51:12.224Z,100872.23
2018-12-23T22:53:41.834Z,100883.61
2018-12-23T22:56:11.871Z,100885.23
2018-12-23T22:58:41.491Z,100886.07
2018-12-23T23:01:11.242Z,100897.86
2018-12-23T23:03:41.030Z,100902.64
2018-12-23T23:06:10.702Z,100905.94
2018-12-23T23:08:40.713Z,100912.48
2018-12-23T23:11:10.355Z,100913.80
2018-12-23T23:13:39.998Z,100917.42
2018-12-23T23:16:09.969Z,100913.87
2018-12-23T23:18:39.670Z,100912.84
2018-12-23T23:21:09.676Z,100917.58
2018-12-23T23:23:39.240Z,100924.35
2018-12-23T23:26:09.197Z,100921.73
2018-12-23T23:28:39.934Z,100919.09
2018-12-23T23:31:10.718Z,100920.20
2018-12-23T23:33:40.719Z,100918.83
2018-12-23T23:36:10.751Z,100936.23
2018-12-23T23:38:40.885Z,100939.23
2018-12-23T23:41:11.147Z,100941.91
2018-12-23T23:43:41.171Z,100941.91
2018-12-23T23:46:11.391Z,100959.27
2018-12-23T23:48:41.021Z,100957.95
2018-12-23T23:51:10.643Z,100965.55
2018-12-23T23:53:40.622Z,100964.51
2018-12-23T23:56:10.583Z,100965.06
2018-12-23T23:58:40.627Z,100970.00
